Time;durP1;ratioP1;P1;durP2;ratioP2;P2;SDS_P1;SDS_P2;PMS_P1;PMS_P2;Temp;Humidity;BMP_temperature;BMP_pressure;BME280_temperature;BME280_humidity;BME280_pressure;Samples;Min_cycle;Max_cycle;Signal;HPM_P1;HPM_P2
2022/11/04 00:01:46;;;;;;;9.80;5.95;;;;;;;9.96;66.12;99522.47;4957857;28;20031;-91
2022/11/04 00:04:12;;;;;;;12.93;6.35;;;;;;;9.86;66.58;99519.72;4992049;28;20034;-91
2022/11/04 00:06:38;;;;;;;11.55;6.35;;;;;;;9.91;66.20;99509.00;4969378;28;20025;-91
2022/11/04 00:09:04;;;;;;;10.25;6.00;;;;;;;9.96;65.52;99514.41;4972016;28;20121;-91
2022/11/04 00:14:14;;;;;;;14.00;5.65;;;;;;;10.11;64.94;99505.59;4975656;28;20112;-90
2022/11/04 00:19:24;;;;;;;10.80;5.32;;;;;;;10.15;65.54;99504.00;4981160;28;20089;-90
2022/11/04 00:30:07;;;;;;;13.10;6.50;;;;;;;10.14;65.13;99512.34;4996414;28;20463;-90
2022/11/04 00:35:20;;;;;;;11.02;5.72;;;;;;;9.83;65.83;99491.47;5005020;28;20400;-90
2022/11/04 00:37:45;;;;;;;8.95;6.07;;;;;;;9.88;66.21;99504.16;4984519;28;20048;-90
2022/11/04 00:40:12;;;;;;;10.23;5.72;;;;;;;9.72;66.49;99492.47;4961897;28;20019;-90
2022/11/04 00:42:38;;;;;;;11.63;6.05;;;;;;;9.70;66.33;99492.72;4968892;28;20118;-89
2022/11/04 00:45:04;;;;;;;14.50;6.47;;;;;;;9.59;66.65;99499.13;5004106;28;20555;-90
2022/11/04 00:47:29;;;;;;;11.50;5.90;;;;;;;9.56;67.29;99494.25;4982327;28;20018;-91
2022/11/04 00:49:55;;;;;;;10.02;5.63;;;;;;;9.55;67.16;99498.03;4984997;28;20026;-91
2022/11/04 00:52:20;;;;;;;14.25;6.28;;;;;;;9.45;67.39;99492.56;4950895;28;20030;-90
2022/11/04 00:54:46;;;;;;;15.57;6.55;;;;;;;9.35;67.44;99484.44;4988126;28;20026;-92
2022/11/04 00:57:12;;;;;;;12.20;5.80;;;;;;;9.33;67.82;99495.44;4987584;28;20022;-89
2022/11/04 00:59:38;;;;;;;10.60;6.28;;;;;;;9.14;68.29;99478.91;4983793;28;20027;-90
2022/11/04 01:02:04;;;;;;;14.23;6.85;;;;;;;8.99;68.56;99473.41;4984878;28;20463;-92
2022/11/04 01:04:30;;;;;;;11.52;6.72;;;;;;;9.01;68.78;99480.13;4992098;28;20030;-90
2022/11/04 01:06:55;;;;;;;12.20;6.53;;;;;;;9.04;69.03;99481.50;4992017;28;20026;-90
2022/11/04 01:09:21;;;;;;;11.30;6.93;;;;;;;8.90;69.17;99467.66;4977126;28;20022;-90
2022/11/04 01:11:46;;;;;;;12.70;6.40;;;;;;;9.00;69.11;99485.75;4978381;28;20050;-90
2022/11/04 01:14:12;;;;;;;11.98;6.28;;;;;;;8.92;68.91;99462.84;4952107;28;20029;-90
2022/11/04 01:16:37;;;;;;;16.05;6.07;;;;;;;8.99;68.67;99460.78;4952112;28;20084;-90
2022/11/04 01:19:03;;;;;;;13.23;6.93;;;;;;;9.04;69.20;99476.94;4972634;28;20037;-90
2022/11/04 01:21:28;;;;;;;22.17;7.53;;;;;;;8.96;69.05;99465.84;4968788;28;20025;-90
2022/11/04 01:23:54;;;;;;;10.05;6.25;;;;;;;9.03;67.89;99455.72;5001530;28;20124;-90
2022/11/04 01:26:21;;;;;;;9.43;6.45;;;;;;;9.04;67.88;99455.44;4994116;28;20018;-90
2022/11/04 01:28:47;;;;;;;10.25;6.25;;;;;;;9.10;68.28;99464.38;4965688;28;20026;-91
2022/11/04 01:31:23;;;;;;;11.27;6.45;;;;;;;8.97;69.08;99451.38;4981854;28;20473;-90
2022/11/04 01:33:49;;;;;;;10.30;6.40;;;;;;;8.98;68.74;99461.03;4974997;28;20109;-89
2022/11/04 01:36:15;;;;;;;13.05;6.43;;;;;;;9.03;68.09;99456.53;4987801;28;20427;-89
2022/11/04 01:38:40;;;;;;;14.35;7.18;;;;;;;9.13;68.17;99446.91;4975704;28;20022;-90
2022/11/04 01:41:06;;;;;;;13.68;6.72;;;;;;;9.12;67.99;99459.53;4951524;28;20054;-90
2022/11/04 01:44:24;;;;;;;14.23;6.28;;;;;;;9.06;67.81;99463.25;4950981;28;20053;-90
2022/11/04 01:46:50;;;;;;;8.73;5.80;;;;;;;9.22;67.66;99474.94;4963979;28;20031;-90
2022/11/04 01:49:25;;;;;;;13.38;6.75;;;;;;;9.24;68.07;99475.50;4955947;28;20117;-90
2022/11/04 01:51:57;;;;;;;13.52;6.45;;;;;;;8.99;67.97;99457.31;4980488;28;20025;-90
2022/11/04 01:54:22;;;;;;;11.43;6.32;;;;;;;8.92;68.29;99451.31;4972976;28;20030;-90
2022/11/04 01:56:48;;;;;;;11.38;6.72;;;;;;;8.83;68.41;99435.66;4986035;28;20085;-90
2022/11/04 01:59:21;;;;;;;16.67;7.60;;;;;;;8.96;68.14;99457.78;4971616;28;20036;-90
2022/11/04 02:01:47;;;;;;;10.20;6.85;;;;;;;8.81;68.49;99432.44;4956043;28;20018;-90
2022/11/04 02:04:24;;;;;;;17.48;7.47;;;;;;;8.74;68.26;99433.72;4995489;28;20022;-90
2022/11/04 02:06:51;;;;;;;16.60;7.22;;;;;;;8.93;68.70;99445.69;4954046;28;20035;-90
2022/11/04 02:09:17;;;;;;;13.70;6.88;;;;;;;9.03;67.91;99426.97;4973342;28;20121;-90
2022/11/04 02:14:26;;;;;;;14.30;6.95;;;;;;;9.02;68.22;99411.91;4980063;28;20099;-90
2022/11/04 02:16:51;;;;;;;9.35;5.95;;;;;;;9.20;67.05;99408.03;4986264;28;20022;-91
2022/11/04 02:19:36;;;;;;;12.30;6.57;;;;;;;9.48;66.49;99427.53;4988483;28;20032;-91
2022/11/04 02:22:05;;;;;;;13.20;6.00;;;;;;;9.60;66.17;99412.03;4984142;28;20064;-90
2022/11/04 02:25:08;;;;;;;10.50;5.80;;;;;;;9.78;65.94;99426.09;4968343;28;20029;-90
2022/11/04 02:27:33;;;;;;;9.65;6.18;;;;;;;9.69;66.26;99421.22;5001282;28;20049;-90
2022/11/04 02:30:22;;;;;;;14.05;6.80;;;;;;;9.63;66.74;99424.13;4977429;28;20037;-90
2022/11/04 02:33:21;;;;;;;15.25;7.18;;;;;;;9.64;66.49;99412.31;4978315;28;20041;-90
2022/11/04 02:36:13;;;;;;;15.07;7.13;;;;;;;9.61;66.38;99397.53;4993107;28;20041;-91
2022/11/04 02:38:50;;;;;;;13.95;8.07;;;;;;;9.59;66.36;99412.31;4996425;28;20073;-90
2022/11/04 02:41:38;;;;;;;15.35;7.88;;;;;;;9.56;66.62;99426.25;4998676;28;20355;-91
2022/11/04 02:44:12;;;;;;;16.75;8.35;;;;;;;9.50;66.67;99414.66;5000144;28;20080;-90
2022/11/04 02:46:59;;;;;;;20.05;8.57;;;;;;;9.41;66.85;99416.22;4988220;28;20478;-90
2022/11/04 02:49:34;;;;;;;17.48;8.13;;;;;;;9.34;66.96;99405.72;4959972;28;20041;-90
2022/11/04 02:52:08;;;;;;;15.57;8.55;;;;;;;9.23;66.80;99388.69;4971659;28;20547;-91
2022/11/04 02:54:43;;;;;;;18.98;8.60;;;;;;;9.18;67.19;99401.31;4981790;28;20030;-91
2022/11/04 02:57:11;;;;;;;12.93;7.72;;;;;;;9.14;67.15;99386.75;5006744;28;20045;-90
2022/11/04 02:59:48;;;;;;;13.90;8.32;;;;;;;8.99;67.48;99379.41;4992595;28;20088;-91
2022/11/04 03:02:34;;;;;;;14.80;8.48;;;;;;;9.00;67.46;99387.19;4974220;28;20036;-91
2022/11/04 03:05:00;;;;;;;14.65;8.27;;;;;;;8.99;67.73;99387.47;4980331;28;20088;-91
2022/11/04 03:07:28;;;;;;;18.83;10.07;;;;;;;8.90;67.85;99384.44;4964395;28;20470;-91
2022/11/04 03:09:57;;;;;;;18.55;9.30;;;;;;;8.98;67.45;99388.53;4988346;28;20026;-91
2022/11/04 03:12:26;;;;;;;23.20;9.82;;;;;;;8.94;67.85;99390.91;4964109;28;20567;-91
2022/11/04 03:14:53;;;;;;;20.33;10.68;;;;;;;8.93;68.19;99392.00;4982386;28;20507;-91
2022/11/04 03:17:40;;;;;;;24.45;11.30;;;;;;;8.92;68.20;99384.97;4958397;28;20026;-91
2022/11/04 03:20:17;;;;;;;26.55;12.25;;;;;;;8.88;68.73;99392.75;4962652;28;20037;-91
2022/11/04 03:22:43;;;;;;;22.50;12.35;;;;;;;8.84;68.37;99394.34;4963529;28;20033;-91
2022/11/04 03:25:08;;;;;;;27.13;11.90;;;;;;;8.97;67.86;99386.91;4941057;28;20030;-91
2022/11/04 03:27:59;;;;;;;31.48;12.40;;;;;;;8.72;68.44;99355.31;4951847;28;20486;-91
2022/11/04 03:30:25;;;;;;;24.90;11.75;;;;;;;8.84;68.67;99380.09;4975786;28;20031;-91
2022/11/04 03:33:04;;;;;;;24.48;11.32;;;;;;;8.66;68.59;99368.69;4958712;28;20034;-91
2022/11/04 03:35:30;;;;;;;23.08;11.60;;;;;;;8.59;68.88;99368.09;4962368;28;20520;-91
2022/11/04 03:37:55;;;;;;;27.13;11.98;;;;;;;8.47;69.07;99368.25;4960726;28;20026;-92
2022/11/04 03:40:21;;;;;;;24.45;12.07;;;;;;;8.58;68.73;99385.25;4943673;28;20119;-92
2022/11/04 03:42:51;;;;;;;22.27;11.45;;;;;;;8.49;69.04;99368.81;4959156;28;20556;-92
2022/11/04 03:45:17;;;;;;;32.65;11.27;;;;;;;8.44;68.99;99354.53;4964523;28;20507;-92
2022/11/04 03:47:42;;;;;;;22.38;11.02;;;;;;;8.39;69.04;99343.75;4945901;28;20026;-92
2022/11/04 03:50:27;;;;;;;22.77;11.48;;;;;;;8.37;69.26;99356.59;4945420;28;20026;-91
2022/11/04 03:52:52;;;;;;;25.98;10.75;;;;;;;8.20;69.64;99344.09;4984552;28;20022;-91
2022/11/04 03:55:18;;;;;;;20.02;10.60;;;;;;;8.38;68.97;99337.53;4959347;28;20027;-92
2022/11/04 03:57:56;;;;;;;21.35;11.13;;;;;;;8.48;69.26;99364.50;4954480;28;20110;-92
2022/11/04 04:00:22;;;;;;;23.17;10.07;;;;;;;8.36;68.72;99344.22;4976016;28;20026;-91
2022/11/04 04:03:09;;;;;;;23.08;9.52;;;;;;;8.46;69.08;99377.34;4963776;28;20057;-91
2022/11/04 04:05:38;;;;;;;17.92;9.93;;;;;;;8.43;69.15;99372.50;4981678;28;20111;-91
2022/11/04 04:08:16;;;;;;;21.55;10.80;;;;;;;8.44;69.00;99371.44;4981582;28;20118;-91
2022/11/04 04:10:50;;;;;;;21.73;10.68;;;;;;;8.34;69.18;99357.88;4987922;28;20085;-91
2022/11/04 04:13:42;;;;;;;22.17;10.30;;;;;;;8.45;68.97;99364.22;5009248;28;20025;-93
2022/11/04 04:16:31;;;;;;;18.17;9.73;;;;;;;8.34;69.46;99365.13;4998019;28;20112;-91
2022/11/04 04:19:00;;;;;;;18.10;9.45;;;;;;;8.20;69.50;99354.81;5006984;28;20025;-91
2022/11/04 04:21:37;;;;;;;21.85;8.88;;;;;;;8.12;69.47;99354.47;4979955;28;20041;-91
2022/11/04 04:29:32;;;;;;;19.10;8.90;;;;;;;8.04;70.57;99363.78;5010286;28;20105;-90
2022/11/04 04:31:59;;;;;;;17.98;9.80;;;;;;;8.03;70.33;99351.41;5004262;28;20536;-91
2022/11/04 04:34:29;;;;;;;16.45;8.93;;;;;;;8.00;70.54;99355.41;4988615;28;20102;-93
2022/11/04 04:37:00;;;;;;;17.85;9.18;;;;;;;8.12;70.15;99360.63;5006585;28;20108;-93
2022/11/04 04:45:07;;;;;;;20.00;9.13;;;;;;;8.07;70.36;99352.53;5020275;28;20048;-93
2022/11/04 04:47:42;;;;;;;18.90;9.60;;;;;;;8.05;70.19;99344.75;4982628;28;20112;-92
2022/11/04 04:50:08;;;;;;;19.58;10.23;;;;;;;7.92;70.79;99345.13;4968634;28;20522;-92
2022/11/04 04:52:36;;;;;;;26.02;9.77;;;;;;;8.06;70.32;99341.00;5000153;28;20050;-93
2022/11/04 04:55:02;;;;;;;19.40;9.48;;;;;;;8.11;69.81;99356.31;4983905;28;20026;-92
2022/11/04 04:57:28;;;;;;;21.42;9.68;;;;;;;8.13;70.04;99348.84;4994841;28;20083;-92
2022/11/04 04:59:56;;;;;;;14.98;9.40;;;;;;;8.16;69.66;99344.88;5001250;28;20029;-92
2022/11/04 05:02:22;;;;;;;24.90;9.93;;;;;;;8.35;69.60;99361.41;5001028;28;20029;-91
2022/11/04 05:04:47;;;;;;;16.63;8.90;;;;;;;8.35;69.20;99353.34;4984863;28;20018;-92
2022/11/04 05:07:13;;;;;;;21.95;11.13;;;;;;;8.36;69.15;99350.41;5000540;28;20021;-91
2022/11/04 05:09:38;;;;;;;23.70;10.27;;;;;;;8.40;69.31;99356.06;5001138;28;20029;-92
2022/11/04 05:12:04;;;;;;;22.35;9.52;;;;;;;8.29;69.58;99355.19;5000907;28;20548;-91
2022/11/04 05:14:29;;;;;;;26.23;9.70;;;;;;;8.20;69.57;99335.25;4984058;28;20028;-92
2022/11/04 05:16:55;;;;;;;22.95;10.18;;;;;;;8.30;69.07;99348.75;4988434;28;20408;-92
2022/11/04 05:19:21;;;;;;;27.13;10.55;;;;;;;8.33;69.49;99367.00;4990731;28;20026;-92
2022/11/04 05:21:46;;;;;;;14.98;9.40;;;;;;;8.19;69.73;99352.38;4980439;28;20030;-91
2022/11/04 05:24:12;;;;;;;19.27;8.90;;;;;;;8.21;69.54;99359.13;5005571;28;20028;-91
2022/11/04 05:26:37;;;;;;;22.60;10.00;;;;;;;8.23;69.00;99342.78;4989725;28;20479;-92
2022/11/04 05:29:03;;;;;;;19.27;10.50;;;;;;;8.41;68.97;99374.63;4980847;28;20057;-91
2022/11/04 05:31:29;;;;;;;17.95;10.15;;;;;;;8.38;69.23;99367.06;4978897;28;20084;-92
2022/11/04 05:33:55;;;;;;;26.50;10.55;;;;;;;8.23;69.53;99353.50;4995730;28;20033;-92
2022/11/04 05:36:36;;;;;;;22.58;10.15;;;;;;;8.15;69.36;99348.59;5009577;28;20467;-92
2022/11/04 05:39:04;;;;;;;23.50;11.57;;;;;;;8.45;69.18;99377.63;4998906;28;20022;-91
2022/11/04 05:41:30;;;;;;;22.13;10.57;;;;;;;8.63;68.82;99376.44;4979383;28;20028;-92
2022/11/04 05:43:57;;;;;;;17.98;9.48;;;;;;;8.53;68.91;99379.03;5004411;28;20021;-94
2022/11/04 05:46:22;;;;;;;17.45;9.88;;;;;;;8.50;68.73;99366.94;4994455;28;20025;-91
2022/11/04 05:48:48;;;;;;;31.23;11.63;;;;;;;8.62;68.48;99369.47;4998643;28;20706;-92
2022/11/04 05:51:27;;;;;;;25.02;12.18;;;;;;;8.69;68.88;99362.81;4966650;28;20029;-92
2022/11/04 05:53:53;;;;;;;20.30;11.57;;;;;;;8.80;68.28;99366.38;4982815;28;20045;-94
2022/11/04 05:56:18;;;;;;;20.75;11.60;;;;;;;8.94;68.28;99372.13;5003976;28;20165;-93
2022/11/04 05:58:44;;;;;;;25.98;12.85;;;;;;;9.13;67.76;99377.91;4984315;28;20485;-94
2022/11/04 06:01:32;;;;;;;27.52;12.02;;;;;;;9.33;67.68;99385.25;4982130;28;20024;-93
2022/11/04 06:03:58;;;;;;;50.63;24.23;;;;;;;9.49;67.05;99378.91;5007785;28;20058;-93
2022/11/04 06:06:24;;;;;;;29.63;11.98;;;;;;;9.53;66.44;99376.53;5016701;28;20057;-93
2022/11/04 06:08:50;;;;;;;22.17;10.68;;;;;;;9.50;67.30;99374.34;4992447;28;20029;-92
2022/11/04 06:13:52;;;;;;;27.90;11.25;;;;;;;9.64;66.11;99363.94;5214618;23;20054;-91
2022/11/04 06:16:18;;;;;;;20.10;10.25;;;;;;;9.77;65.66;99373.38;5008732;28;20037;-91
2022/11/04 06:18:46;;;;;;;30.42;11.60;;;;;;;9.96;65.67;99401.44;4994093;28;20040;-91
2022/11/04 06:21:12;;;;;;;31.02;12.50;;;;;;;9.99;65.10;99402.78;5013737;28;20061;-95
2022/11/04 06:23:55;;;;;;;20.42;11.27;;;;;;;10.04;64.89;99389.34;5027594;28;20042;-94
2022/11/04 06:26:21;;;;;;;25.85;11.15;;;;;;;10.24;64.94;99400.16;4961075;29;20047;-96
2022/11/04 06:31:42;;;;;;;25.77;13.30;;;;;;;10.28;64.59;99377.03;4886514;29;20031;-94
2022/11/04 06:34:08;;;;;;;21.38;11.77;;;;;;;10.43;63.92;99383.56;4908144;29;20123;-94
2022/11/04 06:36:37;;;;;;;26.42;11.75;;;;;;;10.57;63.28;99384.66;4908131;29;20114;-93
2022/11/04 06:39:04;;;;;;;21.08;11.18;;;;;;;10.60;63.38;99373.31;4894324;29;20470;-96
2022/11/04 06:41:31;;;;;;;21.33;10.93;;;;;;;10.83;62.27;99379.25;4925230;29;20064;-96
2022/11/04 06:44:01;;;;;;;27.52;11.80;;;;;;;10.85;62.61;99385.19;4918223;28;20015;-96
2022/11/04 06:49:45;;;;;;;20.88;12.57;;;;;;;11.18;61.92;99380.31;4931212;29;20046;-96
2022/11/04 06:52:34;;;;;;;25.98;13.85;;;;;;;11.27;61.40;99366.03;4930464;29;20042;-96
2022/11/04 06:55:02;;;;;;;24.70;12.10;;;;;;;11.41;61.47;99373.53;4911469;29;20601;-93
2022/11/04 06:57:29;;;;;;;20.70;10.95;;;;;;;11.67;60.68;99391.25;4916750;29;20041;-94
2022/11/04 06:59:55;;;;;;;23.63;11.32;;;;;;;11.82;60.40;99389.56;4944373;29;20023;-96
2022/11/04 07:02:26;;;;;;;30.33;13.20;;;;;;;11.88;60.62;99385.78;4965820;28;20509;-96
2022/11/04 07:04:53;;;;;;;26.42;13.52;;;;;;;12.05;60.10;99378.16;4980648;28;20042;-95
2022/11/04 07:07:22;;;;;;;31.77;17.88;;;;;;;12.20;59.53;99377.28;4994551;28;20023;-96
2022/11/04 07:09:51;;;;;;;22.52;12.60;;;;;;;12.26;59.35;99362.63;5004562;28;20052;-96
2022/11/04 07:12:17;;;;;;;30.25;14.02;;;;;;;12.36;59.31;99361.78;5017955;28;20530;-92
2022/11/04 07:14:44;;;;;;;22.33;11.60;;;;;;;12.62;58.96;99375.91;5000248;28;20113;-95
2022/11/04 07:17:11;;;;;;;28.75;12.35;;;;;;;12.68;58.70;99363.19;5001529;28;20592;-93
2022/11/04 07:19:38;;;;;;;29.17;13.88;;;;;;;12.65;59.00;99348.31;5006779;28;20058;-93
2022/11/04 07:22:05;;;;;;;26.45;13.05;;;;;;;12.80;59.18;99358.19;5026848;28;20029;-94
2022/11/04 07:24:34;;;;;;;41.47;13.60;;;;;;;13.07;58.59;99381.22;5011285;28;20043;-96
2022/11/04 07:27:00;;;;;;;25.40;14.07;;;;;;;13.13;58.38;99351.13;5011723;28;20225;-95
2022/11/04 07:29:32;;;;;;;29.50;15.38;;;;;;;13.24;58.08;99345.63;5002411;28;20029;-94
2022/11/04 07:31:57;;;;;;;25.08;13.80;;;;;;;13.37;58.28;99344.97;5014906;28;20054;-95
2022/11/04 07:34:27;;;;;;;29.05;13.93;;;;;;;13.57;57.85;99353.94;5010664;28;20026;-95
2022/11/04 07:36:55;;;;;;;30.42;14.90;;;;;;;13.58;57.73;99336.63;5006654;28;20101;-95
2022/11/04 07:39:20;;;;;;;24.63;13.48;;;;;;;13.75;56.73;99326.94;5020826;28;20037;-93
2022/11/04 07:41:49;;;;;;;26.67;15.32;;;;;;;14.06;56.47;99347.38;4994267;28;20029;-95
2022/11/04 07:44:16;;;;;;;27.98;13.20;;;;;;;14.12;56.23;99322.63;5033005;28;20033;-96
2022/11/04 07:46:55;;;;;;;;;;;;;;;;;;;;;
2022/11/04 07:49:24;;;;;;;18.95;11.50;;;;;;;14.39;55.62;99318.44;5042755;28;20440;-95
2022/11/04 07:51:51;;;;;;;23.67;11.15;;;;;;;14.42;55.43;99303.50;4997135;28;20052;-95
2022/11/04 07:54:20;;;;;;;27.05;10.48;;;;;;;14.52;55.32;99303.34;5004714;28;20053;-96
2022/11/04 07:56:46;;;;;;;15.45;8.75;;;;;;;14.82;54.35;99310.19;4997804;28;20619;-95
2022/11/04 07:59:12;;;;;;;22.35;8.88;;;;;;;14.99;54.10;99306.09;5019285;28;20036;-92
2022/11/04 08:01:39;;;;;;;15.70;7.88;;;;;;;15.16;53.27;99309.81;4999525;28;20030;-92
2022/11/04 08:04:06;;;;;;;13.00;7.22;;;;;;;15.35;53.11;99306.22;5017005;28;20025;-95
2022/11/04 08:06:50;;;;;;;12.32;7.18;;;;;;;15.43;52.54;99281.09;5020455;28;20017;-96
2022/11/04 08:09:23;;;;;;;11.95;6.97;;;;;;;15.73;51.95;99303.31;5010004;28;20030;-95
2022/11/04 08:14:41;;;;;;;11.43;5.90;;;;;;;15.91;51.46;99290.69;5035379;28;20079;-96
2022/11/04 08:17:11;;;;;;;18.67;8.65;;;;;;;16.01;51.65;99285.03;5034107;28;20049;-95
2022/11/04 08:19:40;;;;;;;12.95;6.03;;;;;;;16.19;50.86;99285.19;5009436;28;20029;-96
2022/11/04 08:22:07;;;;;;;13.48;6.00;;;;;;;16.33;50.71;99288.63;5050572;28;20157;-96
2022/11/04 08:24:35;;;;;;;13.93;7.70;;;;;;;16.32;50.73;99274.25;5004349;28;20033;-96
2022/11/04 08:27:06;;;;;;;13.10;6.50;;;;;;;16.40;51.21;99271.91;5018254;28;20029;-96
2022/11/04 08:29:34;;;;;;;13.23;6.05;;;;;;;16.54;49.91;99269.94;5028457;28;20026;-96
2022/11/04 08:32:06;;;;;;;13.73;6.28;;;;;;;16.60;49.63;99254.28;5005038;28;20092;-96
2022/11/04 08:34:35;;;;;;;9.68;5.93;;;;;;;16.80;49.04;99259.19;4993608;28;20194;-95
2022/11/04 08:37:03;;;;;;;10.98;6.03;;;;;;;16.88;49.86;99263.88;4971534;28;20042;-96
2022/11/04 08:40:00;;;;;;;14.50;6.22;;;;;;;16.95;49.53;99252.56;4990547;28;20053;-96
2022/11/04 08:44:56;;;;;;;12.75;5.20;;;;;;;17.23;48.35;99241.47;5038752;28;20053;-94
2022/11/04 08:47:24;;;;;;;11.85;4.75;;;;;;;17.42;47.88;99250.16;4993443;28;20063;-96
2022/11/04 08:49:52;;;;;;;15.70;6.00;;;;;;;17.49;47.43;99249.69;5006906;28;20046;-95
2022/11/04 08:52:19;;;;;;;18.55;4.82;;;;;;;17.67;46.44;99253.25;4991060;28;20543;-95
2022/11/04 08:54:45;;;;;;;12.07;5.50;;;;;;;17.74;45.95;99231.78;5021040;28;20030;-95
2022/11/04 08:57:18;;;;;;;13.77;5.30;;;;;;;17.84;46.14;99234.22;4987769;28;20068;-94
2022/11/04 08:59:47;;;;;;;11.07;5.60;;;;;;;17.93;45.22;99226.06;4980777;28;20029;-93
2022/11/04 09:02:16;;;;;;;13.75;5.75;;;;;;;18.04;44.15;99232.78;4990263;28;20030;-95
2022/11/04 09:04:46;;;;;;;10.45;4.72;;;;;;;18.25;43.56;99222.00;5004462;28;20033;-96
2022/11/04 09:07:13;;;;;;;11.75;4.80;;;;;;;18.37;43.06;99222.16;5002794;28;20033;-96
2022/11/04 09:09:40;;;;;;;14.82;6.13;;;;;;;18.47;43.47;99221.00;5002064;28;20033;-91
2022/11/04 09:12:09;;;;;;;13.77;5.35;;;;;;;18.66;43.33;99226.09;4987489;28;20477;-94
2022/11/04 09:15:06;;;;;;;10.45;4.95;;;;;;;18.77;42.95;99221.06;4981762;28;20041;-93
2022/11/04 09:17:54;;;;;;;13.18;5.65;;;;;;;18.88;42.68;99221.53;4989937;28;20068;-94
2022/11/04 09:20:37;;;;;;;14.90;6.35;;;;;;;18.95;42.85;99219.13;5048457;28;20071;-93
2022/11/04 09:23:09;;;;;;;11.68;5.72;;;;;;;18.82;43.22;99203.75;5009079;28;20056;-94
2022/11/04 09:25:35;;;;;;;16.77;5.82;;;;;;;18.85;42.91;99189.47;5014637;28;20069;-91
2022/11/04 09:28:04;;;;;;;10.98;5.45;;;;;;;18.95;42.76;99198.06;4995196;28;20033;-94
2022/11/04 09:30:36;;;;;;;12.55;5.20;;;;;;;18.97;42.99;99187.63;4991340;28;20064;-94
2022/11/04 09:33:02;;;;;;;7.28;4.55;;;;;;;19.06;41.98;99189.53;5019255;28;20419;-95
2022/11/04 09:35:28;;;;;;;6.97;4.82;;;;;;;19.14;42.04;99202.31;5007194;28;20029;-94
2022/11/04 09:38:00;;;;;;;15.45;5.55;;;;;;;19.05;42.64;99188.72;5037141;28;20044;-94
2022/11/04 09:40:32;;;;;;;10.43;5.30;;;;;;;19.06;42.80;99179.41;4987345;28;20041;-94
2022/11/04 09:43:03;;;;;;;;;;;;;;;19.26;41.86;99202.41;4972651;28;20053;-93
2022/11/04 09:45:35;;;;;;;12.50;5.97;;;;;;;19.13;42.00;99179.69;4979852;28;19917;-91
2022/11/04 09:48:05;;;;;;;;;;;;;;;19.26;42.54;99188.75;4982328;28;20277;-96
2022/11/04 09:50:46;;;;;;;10.77;6.15;;;;;;;19.29;42.16;99188.09;4967157;28;19913;-93
2022/11/04 09:53:36;;;;;;;11.90;5.07;;;;;;;19.24;41.40;99161.00;4968765;28;20045;-96
2022/11/04 09:56:09;;;;;;;8.43;5.07;;;;;;;19.30;41.60;99165.13;4979021;28;20391;-91
2022/11/04 09:58:42;;;;;;;7.93;5.07;;;;;;;19.32;42.62;99162.88;4952574;28;20054;-93
2022/11/04 10:01:36;;;;;;;10.73;5.45;;;;;;;19.39;40.84;99144.00;4982669;28;20496;-93
2022/11/04 10:04:17;;;;;;;14.60;4.63;;;;;;;19.55;40.69;99157.09;4947159;28;20042;-92
2022/11/04 10:07:10;;;;;;;9.57;4.78;;;;;;;19.54;40.58;99137.16;4984512;28;20036;-92
2022/11/04 10:09:57;;;;;;;6.72;4.55;;;;;;;19.64;40.46;99127.75;4979078;28;20034;-93
2022/11/04 10:13:00;;;;;;;10.27;4.65;;;;;;;19.64;39.86;99125.03;4967448;28;20053;-92
2022/11/04 10:15:48;;;;;;;11.60;5.00;;;;;;;19.77;40.00;99136.81;5004909;28;20502;-92
2022/11/04 10:18:42;;;;;;;12.88;5.40;;;;;;;19.81;39.75;99126.03;5001540;28;20033;-92
2022/11/04 10:21:28;;;;;;;8.55;4.22;;;;;;;19.85;39.70;99116.03;5024369;28;20025;-94
2022/11/04 10:24:17;;;;;;;9.52;4.78;;;;;;;19.94;39.83;99111.25;5027828;28;20159;-93
2022/11/04 10:26:56;;;;;;;8.13;4.65;;;;;;;19.87;40.06;99097.34;5046768;28;20114;-94
2022/11/04 10:29:40;;;;;;;11.73;5.10;;;;;;;20.01;39.75;99106.06;4985748;28;20091;-92
2022/11/04 10:33:01;;;;;;;16.25;5.32;;;;;;;19.90;38.96;99081.09;5016256;28;20396;-93
2022/11/04 10:36:01;;;;;;;9.93;4.88;;;;;;;20.00;39.38;99090.78;5000994;28;20061;-95
2022/11/04 10:38:40;;;;;;;10.50;5.22;;;;;;;20.11;38.51;99081.03;5009527;28;20424;-95
2022/11/04 10:41:36;;;;;;;10.93;5.38;;;;;;;20.17;39.04;99087.88;4992541;28;20029;-95
2022/11/04 10:44:55;;;;;;;11.57;5.30;;;;;;;20.09;38.95;99066.09;5024927;28;20072;-96
2022/11/04 10:47:42;;;;;;;11.38;4.68;;;;;;;20.13;39.18;99061.53;4986460;28;20030;-94
2022/11/04 10:50:10;;;;;;;9.20;4.57;;;;;;;20.33;39.01;99081.72;4953547;28;20521;-91
2022/11/04 10:52:40;;;;;;;14.20;6.13;;;;;;;20.26;37.95;99043.22;4995583;28;20515;-94
2022/11/04 10:55:50;;;;;;;9.73;5.72;;;;;;;20.57;37.86;99064.53;4948330;28;20072;-93
2022/11/04 10:58:31;;;;;;;11.18;5.68;;;;;;;20.57;37.83;99035.22;4966216;28;20125;-94
2022/11/04 11:00:57;;;;;;;11.23;5.95;;;;;;;20.63;37.76;99044.03;4947899;28;20029;-95
2022/11/04 11:03:33;;;;;;;10.32;5.65;;;;;;;20.60;38.30;99033.78;4958834;28;20033;-94
2022/11/04 11:06:10;;;;;;;11.00;5.50;;;;;;;20.82;37.76;99059.06;4943811;28;20627;-93
2022/11/04 11:08:39;;;;;;;9.30;5.45;;;;;;;20.83;37.43;99047.75;4975362;28;20047;-95
2022/11/04 11:11:11;;;;;;;13.98;6.85;;;;;;;20.80;37.63;99032.03;4979260;28;20034;-95
2022/11/04 11:13:41;;;;;;;15.57;7.50;;;;;;;20.90;37.37;99034.31;4992291;28;20041;-95
2022/11/04 11:16:20;;;;;;;14.82;8.63;;;;;;;20.97;36.15;99018.06;4982510;28;20038;-95
2022/11/04 11:19:11;;;;;;;21.15;10.13;;;;;;;21.06;36.26;99022.63;5013979;28;20130;-96
2022/11/04 11:21:48;;;;;;;10.57;5.75;;;;;;;21.14;36.79;99021.69;5041506;28;20419;-94
2022/11/04 11:24:19;;;;;;;11.15;5.47;;;;;;;21.17;35.46;99008.09;4983106;28;20503;-96
2022/11/04 11:29:41;;;;;;;8.38;4.68;;;;;;;21.40;34.93;99021.25;5009503;28;20040;-94
2022/11/04 11:32:42;;;;;;;10.95;5.15;;;;;;;21.48;34.86;99031.28;5017470;28;20022;-94
2022/11/04 11:35:18;;;;;;;12.68;5.32;;;;;;;21.40;35.60;99008.34;5014594;28;20025;-96
2022/11/04 11:37:50;;;;;;;11.45;5.75;;;;;;;21.51;34.99;99016.88;5022615;28;20483;-94
2022/11/04 11:40:30;;;;;;;10.27;5.85;;;;;;;21.59;34.86;99015.91;5003437;28;20021;-94
2022/11/04 11:42:58;;;;;;;15.80;5.78;;;;;;;21.51;35.35;99013.34;4987709;28;20053;-93
2022/11/04 11:45:27;;;;;;;14.40;6.93;;;;;;;21.62;34.81;99024.56;5016419;28;20046;-94
2022/11/04 11:47:55;;;;;;;14.48;5.65;;;;;;;21.54;34.82;99002.47;5000810;28;20029;-93
2022/11/04 11:50:32;;;;;;;13.40;5.82;;;;;;;21.65;35.36;99012.94;4996088;28;20063;-94
2022/11/04 11:53:37;;;;;;;9.50;5.80;;;;;;;21.72;35.69;99018.59;5014923;28;20039;-96
2022/11/04 11:56:34;;;;;;;10.00;6.10;;;;;;;21.63;35.42;98999.56;5034138;28;20054;-96
2022/11/04 12:02:51;;;;;;;15.13;5.70;;;;;;;21.45;35.99;98993.63;4961085;28;20490;-96
2022/11/04 12:14:15;;;;;;;10.77;5.25;;;;;;;21.39;35.75;98975.81;5045232;28;20048;-96
2022/11/04 12:24:07;;;;;;;9.88;5.22;;;;;;;21.19;35.38;98956.53;5029206;28;20036;-96
2022/11/04 12:32:34;;;;;;;11.63;5.20;;;;;;;21.19;36.06;98981.16;5031368;28;20103;-93
2022/11/04 12:35:10;;;;;;;;;;;;;;;21.14;36.65;98983.34;4978548;28;20030;-93
2022/11/04 12:38:22;;;;;;;9.68;5.43;;;;;;;20.96;36.82;98966.44;5003357;28;19931;-96
2022/11/04 12:41:22;;;;;;;17.42;8.45;;;;;;;20.97;36.88;98973.50;4962535;28;20038;-94
2022/11/04 12:44:25;;;;;;;14.63;6.20;;;;;;;20.89;37.15;98967.00;4956285;28;20037;-95
2022/11/04 12:47:02;;;;;;;13.07;6.90;;;;;;;20.92;37.42;98966.31;4997414;28;20030;-93
2022/11/04 12:49:44;;;;;;;16.17;6.13;;;;;;;20.77;36.80;98948.72;4996738;28;20117;-96
2022/11/04 12:52:19;;;;;;;9.93;5.63;;;;;;;20.77;37.25;98945.16;4967601;28;20040;-94
2022/11/04 12:55:06;;;;;;;11.82;6.50;;;;;;;20.73;37.14;98936.88;4957377;28;20435;-93
2022/11/04 12:57:37;;;;;;;14.45;5.78;;;;;;;20.89;37.14;98961.53;4963375;28;20038;-93
2022/11/04 13:00:08;;;;;;;12.65;5.90;;;;;;;20.67;37.12;98931.97;4963715;28;20037;-94
2022/11/04 13:03:11;;;;;;;17.48;6.20;;;;;;;20.71;36.88;98933.69;4963630;28;20516;-92
2022/11/04 13:05:52;;;;;;;12.25;5.47;;;;;;;20.79;37.41;98957.38;4975902;28;20122;-95
2022/11/04 13:08:32;;;;;;;13.90;5.88;;;;;;;20.67;37.26;98941.00;5004583;28;20051;-95
2022/11/04 13:11:21;;;;;;;11.73;5.60;;;;;;;20.74;37.51;98946.66;4978647;28;20029;-93